Time;durP1;ratioP1;P1;durP2;ratioP2;P2;SDS_P1;SDS_P2;PMS_P1;PMS_P2;Temp;Humidity;BMP_temperature;BMP_pressure;BME280_temperature;BME280_humidity;BME280_pressure;Samples;Min_cycle;Max_cycle;Signal;HPM_P1;HPM_P2
2021/08/16 00:00:20;;;;;;;15.00;11.20;;;;;;;28.83;83.91;97500.38;5021236;28;20220;-69
2021/08/16 00:02:48;;;;;;;15.47;10.10;;;;;;;28.87;83.47;97501.28;5023213;28;20222;-69
2021/08/16 00:05:17;;;;;;;14.03;10.43;;;;;;;28.85;82.69;97506.31;5017602;28;20594;-69
2021/08/16 00:07:44;;;;;;;15.93;10.30;;;;;;;28.50;85.37;97496.59;5026429;28;20726;-69
2021/08/16 00:10:15;;;;;;;13.33;9.43;;;;;;;28.52;83.83;97494.34;5020507;28;20235;-68
2021/08/16 00:12:42;;;;;;;14.83;8.93;;;;;;;29.00;82.23;97505.78;5025631;28;20290;-68
2021/08/16 00:15:10;;;;;;;11.50;8.20;;;;;;;29.06;80.54;97498.97;5021166;28;20199;-68
2021/08/16 00:17:37;;;;;;;16.77;8.87;;;;;;;29.23;79.65;97499.69;5024968;28;20670;-68
2021/08/16 00:20:06;;;;;;;13.07;8.50;;;;;;;28.88;81.71;97489.97;5020562;28;20728;-68
2021/08/16 00:22:34;;;;;;;10.57;7.87;;;;;;;29.10;78.87;97499.94;5025590;28;20207;-68
2021/08/16 00:25:02;;;;;;;14.17;8.50;;;;;;;29.28;78.71;97493.97;5018176;28;20219;-68
2021/08/16 00:27:30;;;;;;;13.00;7.57;;;;;;;29.51;77.39;97489.78;5025417;28;20226;-68
2021/08/16 00:29:57;;;;;;;10.07;7.30;;;;;;;29.21;78.46;97482.72;5020893;28;20226;-68
2021/08/16 00:32:24;;;;;;;11.83;7.87;;;;;;;29.13;79.16;97483.56;5013605;28;20295;-68
2021/08/16 00:34:51;;;;;;;14.33;7.20;;;;;;;29.55;77.42;97471.47;5015734;28;20198;-68
2021/08/16 00:37:19;;;;;;;12.00;7.63;;;;;;;29.63;77.09;97476.13;5021063;28;20206;-68
2021/08/16 00:39:47;;;;;;;10.63;7.77;;;;;;;29.71;76.47;97479.94;5014856;28;20699;-68
2021/08/16 00:42:15;;;;;;;13.37;8.40;;;;;;;29.83;76.51;97480.00;5023702;28;20202;-68
2021/08/16 00:44:42;;;;;;;9.23;7.33;;;;;;;29.47;78.17;97460.53;5027702;28;20640;-69
2021/08/16 00:47:10;;;;;;;12.00;8.57;;;;;;;29.98;74.71;97468.34;5018159;28;20663;-68
2021/08/16 00:49:37;;;;;;;10.53;7.77;;;;;;;29.92;74.43;97469.72;5025219;28;20223;-68
2021/08/16 00:52:06;;;;;;;12.67;7.90;;;;;;;29.85;74.11;97462.00;5019404;28;20209;-68
2021/08/16 00:54:34;;;;;;;14.00;8.10;;;;;;;29.40;77.83;97468.53;5023442;28;20218;-69
2021/08/16 00:57:04;;;;;;;10.23;7.33;;;;;;;30.09;73.62;97466.78;5018507;28;20205;-68
2021/08/16 00:59:32;;;;;;;13.73;7.80;;;;;;;29.86;72.89;97466.38;5022629;28;20229;-68
2021/08/16 01:01:59;;;;;;;9.80;6.97;;;;;;;30.10;70.82;97465.66;5017518;28;20213;-69
2021/08/16 01:04:28;;;;;;;14.67;7.50;;;;;;;30.02;70.67;97466.53;5018077;28;20579;-69
2021/08/16 01:06:55;;;;;;;11.67;6.60;;;;;;;30.38;68.32;97461.16;5008651;28;20238;-69
2021/08/16 01:09:22;;;;;;;11.87;6.80;;;;;;;30.03;68.95;97468.97;5014808;28;20226;-69
2021/08/16 01:11:51;;;;;;;10.77;6.60;;;;;;;30.00;68.89;97471.59;5015031;28;20225;-68
2021/08/16 01:14:19;;;;;;;10.47;6.73;;;;;;;29.93;70.12;97469.38;5020349;28;20289;-69
2021/08/16 01:16:48;;;;;;;13.03;6.70;;;;;;;30.19;67.88;97474.66;5021432;28;20215;-68
2021/08/16 01:19:16;;;;;;;9.23;6.67;;;;;;;30.24;66.38;97479.94;5022879;28;20227;-68
2021/08/16 01:21:43;;;;;;;9.30;6.77;;;;;;;29.98;67.61;97482.94;5020669;28;20208;-68
2021/08/16 01:24:11;;;;;;;10.33;6.47;;;;;;;30.19;67.26;97478.22;5023375;28;20203;-69
2021/08/16 01:26:39;;;;;;;8.63;6.30;;;;;;;29.69;71.82;97469.28;5018872;28;20227;-69
2021/08/16 01:29:16;;;;;;;11.60;7.40;;;;;;;29.50;72.71;97473.63;5022937;28;20235;-69
2021/08/16 01:31:43;;;;;;;9.97;7.07;;;;;;;30.20;69.85;97473.53;5014879;28;20207;-69
2021/08/16 01:34:11;;;;;;;10.83;6.73;;;;;;;30.25;68.75;97479.59;5011246;28;20204;-69
2021/08/16 01:36:40;;;;;;;11.83;7.13;;;;;;;30.01;70.07;97473.97;5021006;28;20202;-69
2021/08/16 01:39:07;;;;;;;10.90;6.77;;;;;;;29.48;73.64;97467.63;5012715;28;20653;-68
2021/08/16 01:41:35;;;;;;;10.30;7.37;;;;;;;29.71;73.42;97468.94;5017623;28;20208;-68
2021/08/16 01:44:04;;;;;;;9.37;6.53;;;;;;;29.29;76.13;97461.81;5025732;28;20215;-68
2021/08/16 01:46:31;;;;;;;10.50;7.43;;;;;;;29.74;73.78;97463.56;5019369;28;20231;-68
2021/08/16 01:48:58;;;;;;;9.00;7.17;;;;;;;29.40;75.72;97463.03;5027820;28;20226;-68
2021/08/16 01:51:26;;;;;;;11.77;7.47;;;;;;;29.48;76.17;97456.63;5021375;28;20215;-68
2021/08/16 01:53:53;;;;;;;13.23;7.10;;;;;;;29.54;74.94;97464.38;5032960;28;20207;-68
2021/08/16 01:56:20;;;;;;;12.73;7.70;;;;;;;29.42;76.01;97463.47;5022150;28;20211;-68
2021/08/16 01:58:48;;;;;;;10.97;7.00;;;;;;;29.21;76.59;97460.72;5025666;28;20282;-68
2021/08/16 02:01:17;;;;;;;13.17;7.40;;;;;;;29.08;78.62;97470.03;5021212;28;20200;-68
2021/08/16 02:03:44;;;;;;;13.57;7.60;;;;;;;29.98;72.28;97480.19;5019791;28;20595;-68
2021/08/16 02:06:13;;;;;;;11.27;7.43;;;;;;;29.52;74.54;97472.16;5019791;28;20656;-69
2021/08/16 02:08:40;;;;;;;14.03;7.60;;;;;;;29.43;75.50;97470.59;5022825;28;20722;-68
2021/08/16 02:11:08;;;;;;;10.83;7.57;;;;;;;29.45;75.92;97469.09;5019350;28;20664;-69
2021/08/16 02:13:35;;;;;;;12.13;8.03;;;;;;;29.52;74.22;97471.31;5017831;28;20233;-69
2021/08/16 02:16:03;;;;;;;11.03;7.73;;;;;;;29.57;74.23;97473.91;5027911;28;20203;-69
2021/08/16 02:18:31;;;;;;;10.03;7.33;;;;;;;29.43;73.58;97476.09;5020588;28;20200;-69
2021/08/16 02:20:59;;;;;;;12.40;7.63;;;;;;;29.69;73.38;97474.78;5027211;28;20199;-69
2021/08/16 02:23:26;;;;;;;12.50;8.10;;;;;;;29.74;72.99;97484.78;5023054;28;20718;-69
2021/08/16 02:25:53;;;;;;;12.20;7.83;;;;;;;29.78;72.99;97481.00;5025706;28;20203;-68
2021/08/16 02:28:20;;;;;;;13.57;7.23;;;;;;;29.40;75.24;97482.28;5023619;28;20223;-69
2021/08/16 02:30:49;;;;;;;13.47;8.33;;;;;;;29.65;74.34;97493.09;5023030;28;20222;-69
2021/08/16 02:33:17;;;;;;;12.80;7.30;;;;;;;29.49;75.28;97496.75;5014319;28;20211;-69
2021/08/16 02:35:46;;;;;;;14.43;7.83;;;;;;;29.87;72.96;97509.28;5021780;28;20199;-69
2021/08/16 02:38:14;;;;;;;10.47;7.30;;;;;;;30.00;71.27;97515.63;5018368;28;20227;-69
2021/08/16 02:40:41;;;;;;;16.97;8.00;;;;;;;29.68;73.25;97513.63;5021343;28;20229;-69
2021/08/16 02:43:09;;;;;;;13.07;8.20;;;;;;;29.78;72.90;97513.22;5018894;28;20204;-68
2021/08/16 02:45:36;;;;;;;11.20;7.83;;;;;;;29.58;74.49;97525.84;5025529;28;20672;-69
2021/08/16 02:48:04;;;;;;;11.83;7.50;;;;;;;30.27;70.60;97526.09;5017260;28;20230;-69
2021/08/16 02:50:31;;;;;;;10.70;7.30;;;;;;;30.41;69.36;97530.13;5023797;28;20700;-69
2021/08/16 02:53:00;;;;;;;15.17;8.10;;;;;;;30.09;70.65;97524.59;5021441;28;20199;-69
2021/08/16 02:55:27;;;;;;;10.07;7.00;;;;;;;30.16;70.47;97525.69;5023664;28;20204;-69
2021/08/16 02:57:55;;;;;;;15.30;7.70;;;;;;;29.69;72.21;97531.75;5016682;28;20229;-69
2021/08/16 03:00:22;;;;;;;8.73;7.10;;;;;;;29.88;71.47;97524.63;5025296;28;20228;-69
2021/08/16 03:02:49;;;;;;;13.23;7.17;;;;;;;29.98;69.99;97523.41;5018514;28;20607;-69
2021/08/16 03:05:16;;;;;;;12.17;7.80;;;;;;;29.65;70.58;97520.59;5022258;28;20208;-69
2021/08/16 03:07:44;;;;;;;11.67;6.57;;;;;;;29.55;70.77;97517.47;5018396;28;20240;-69
2021/08/16 03:10:14;;;;;;;9.43;6.43;;;;;;;29.18;72.60;97519.09;5025171;28;20234;-69
2021/08/16 03:12:41;;;;;;;12.17;7.13;;;;;;;29.41;72.21;97522.38;5017562;28;20213;-69
2021/08/16 03:15:10;;;;;;;11.17;6.73;;;;;;;28.37;76.87;97516.81;5024127;28;20199;-69
2021/08/16 03:17:37;;;;;;;10.20;6.87;;;;;;;29.32;72.33;97527.09;5027073;28;20604;-69
2021/08/16 03:20:05;;;;;;;14.10;7.47;;;;;;;28.94;74.44;97524.38;5023529;28;20229;-69
2021/08/16 03:22:33;;;;;;;9.97;7.00;;;;;;;28.73;76.83;97525.44;5026046;28;20202;-69
2021/08/16 03:25:00;;;;;;;7.63;6.60;;;;;;;28.72;76.47;97521.06;5021958;28;20573;-69
2021/08/16 03:27:29;;;;;;;10.17;7.00;;;;;;;28.59;77.66;97525.63;5025020;28;20230;-69
2021/08/16 03:29:56;;;;;;;11.53;7.07;;;;;;;28.55;77.65;97529.38;5020931;28;20241;-69
2021/08/16 03:32:23;;;;;;;11.33;7.33;;;;;;;28.79;76.90;97540.59;5014840;28;20254;-68
2021/08/16 03:34:50;;;;;;;9.77;6.90;;;;;;;28.49;79.03;97526.03;5015301;28;20213;-68
2021/08/16 03:37:18;;;;;;;13.40;7.50;;;;;;;28.28;78.09;97525.03;5021765;28;20204;-68
2021/08/16 03:39:45;;;;;;;11.93;7.77;;;;;;;28.29;79.77;97534.09;5023272;28;20225;-68
2021/08/16 03:42:12;;;;;;;10.03;7.10;;;;;;;28.46;79.38;97534.91;5020791;28;20309;-68
2021/08/16 03:44:41;;;;;;;11.37;7.17;;;;;;;28.21;81.46;97537.66;5026717;28;20203;-68
2021/08/16 03:47:09;;;;;;;12.67;8.00;;;;;;;29.03;75.89;97549.91;5020815;28;20605;-68
2021/08/16 03:49:36;;;;;;;13.90;8.03;;;;;;;28.31;80.90;97553.78;5025907;28;20223;-69
2021/08/16 03:52:03;;;;;;;9.37;7.23;;;;;;;28.55;78.98;97545.84;5020137;28;20207;-69
2021/08/16 03:54:31;;;;;;;10.63;7.03;;;;;;;28.50;78.79;97546.84;5024240;28;20207;-69
2021/08/16 03:56:58;;;;;;;13.27;7.23;;;;;;;28.80;77.05;97539.47;5018706;28;20210;-69
2021/08/16 03:59:25;;;;;;;11.53;7.20;;;;;;;28.42;79.46;97542.16;5022871;28;20754;-69
2021/08/16 04:01:54;;;;;;;10.13;6.50;;;;;;;28.96;75.87;97546.84;5018262;28;20210;-69
2021/08/16 04:04:21;;;;;;;13.50;7.93;;;;;;;28.36;77.59;97548.94;5018593;28;20209;-69
2021/08/16 04:06:49;;;;;;;14.37;7.47;;;;;;;28.29;77.33;97556.06;5018010;28;20226;-68
2021/08/16 04:09:17;;;;;;;8.97;6.60;;;;;;;28.66;75.20;97566.34;5021861;28;20277;-69
2021/08/16 04:11:44;;;;;;;10.70;7.03;;;;;;;28.14;77.40;97565.59;5024513;28;20207;-69
2021/08/16 04:14:12;;;;;;;11.80;7.07;;;;;;;28.31;76.83;97567.50;5023054;28;20209;-69
2021/08/16 04:16:39;;;;;;;10.60;6.97;;;;;;;28.97;73.31;97567.72;5021547;28;20203;-69
2021/08/16 04:19:08;;;;;;;12.93;7.10;;;;;;;28.74;73.55;97568.25;5023904;28;20215;-69
2021/08/16 04:21:35;;;;;;;9.67;6.57;;;;;;;28.41;73.14;97567.19;5020756;28;20203;-69
2021/08/16 04:24:02;;;;;;;11.13;7.10;;;;;;;28.17;75.56;97573.19;5024272;28;20210;-69
2021/08/16 04:26:30;;;;;;;11.87;6.53;;;;;;;28.69;72.67;97577.47;5019345;28;20204;-69
2021/08/16 04:28:57;;;;;;;10.53;5.97;;;;;;;28.55;71.88;97573.31;5024051;28;20227;-69
2021/08/16 04:31:24;;;;;;;12.13;6.73;;;;;;;28.48;72.26;97575.75;5016452;28;20204;-69
2021/08/16 04:33:51;;;;;;;11.77;6.73;;;;;;;28.02;74.28;97572.88;5013396;28;20302;-69
2021/08/16 04:36:21;;;;;;;9.07;6.43;;;;;;;28.34;72.58;97573.19;5020922;28;20210;-69
2021/08/16 04:38:49;;;;;;;8.93;6.30;;;;;;;28.26;73.60;97587.69;5018482;28;20280;-69
2021/08/16 04:41:16;;;;;;;8.73;6.47;;;;;;;28.98;69.92;97593.25;5023912;28;20294;-69
2021/08/16 04:43:43;;;;;;;13.13;6.23;;;;;;;29.01;68.12;97589.84;5016667;28;20214;-69
2021/08/16 04:46:10;;;;;;;11.23;6.30;;;;;;;29.25;66.72;97590.88;5023104;28;20215;-69
2021/08/16 04:48:38;;;;;;;11.50;6.63;;;;;;;28.62;70.16;97579.91;5020558;28;20232;-69
2021/08/16 04:51:05;;;;;;;12.80;6.10;;;;;;;29.17;66.14;97596.41;5022747;28;20207;-69
2021/08/16 04:53:34;;;;;;;8.63;6.03;;;;;;;28.55;68.83;97609.84;5020416;28;20202;-69
2021/08/16 04:56:01;;;;;;;10.10;6.00;;;;;;;29.16;64.77;97620.34;5022190;28;20203;-69
2021/08/16 04:58:28;;;;;;;9.13;5.53;;;;;;;28.50;67.26;97625.66;5018851;28;20209;-69
2021/08/16 05:00:56;;;;;;;10.50;6.07;;;;;;;28.39;65.70;97638.09;5012042;28;20211;-69
2021/08/16 05:03:23;;;;;;;6.57;5.03;;;;;;;29.08;63.25;97639.63;5015072;28;20691;-69
2021/08/16 05:05:53;;;;;;;8.97;4.83;;;;;;;28.60;64.87;97639.03;5019073;28;20664;-69
2021/08/16 05:08:20;;;;;;;8.47;5.37;;;;;;;28.96;62.84;97644.94;5022985;28;20318;-69
2021/08/16 05:10:49;;;;;;;9.30;5.70;;;;;;;28.31;63.44;97639.69;5017814;28;20574;-69
2021/08/16 05:13:17;;;;;;;11.87;5.40;;;;;;;28.93;62.61;97651.13;5020173;28;20211;-69
2021/08/16 05:15:45;;;;;;;10.87;5.53;;;;;;;28.03;66.00;97656.81;5022395;28;20206;-69
2021/08/16 05:18:12;;;;;;;9.17;5.60;;;;;;;28.45;64.18;97656.84;5023446;28;20210;-69
2021/08/16 05:20:40;;;;;;;8.63;5.50;;;;;;;29.01;62.84;97666.78;5019925;28;20237;-69
2021/08/16 05:23:07;;;;;;;9.37;4.93;;;;;;;28.25;63.99;97673.09;5022692;28;20573;-69
2021/08/16 05:25:34;;;;;;;6.97;5.27;;;;;;;28.28;64.06;97658.75;5026265;28;20202;-69
2021/08/16 05:28:04;;;;;;;8.17;4.70;;;;;;;28.60;60.58;97670.06;5020295;28;20238;-70
2021/08/16 05:30:31;;;;;;;7.37;4.67;;;;;;;28.67;60.86;97675.88;5025457;28;20230;-69
2021/08/16 05:32:59;;;;;;;8.47;5.30;;;;;;;29.23;58.88;97677.56;5012369;28;20203;-69
2021/08/16 05:35:26;;;;;;;9.00;5.37;;;;;;;28.58;62.87;97680.56;5016526;28;20251;-69
2021/08/16 05:37:55;;;;;;;7.77;4.73;;;;;;;29.42;58.45;97689.78;5018555;28;20201;-69
2021/08/16 05:40:22;;;;;;;11.17;5.10;;;;;;;28.59;59.38;97690.41;5025134;28;20226;-69
2021/08/16 05:42:49;;;;;;;9.23;5.37;;;;;;;28.09;62.45;97691.19;5017944;28;20215;-68
2021/08/16 05:45:18;;;;;;;7.17;4.47;;;;;;;28.42;61.53;97701.41;5025522;28;20203;-69
2021/08/16 05:47:45;;;;;;;6.73;4.60;;;;;;;28.38;62.28;97702.34;5016682;28;20207;-69
2021/08/16 05:50:13;;;;;;;12.67;4.87;;;;;;;28.29;62.41;97709.78;5023621;28;20722;-68
2021/08/16 05:52:40;;;;;;;12.47;4.80;;;;;;;29.16;58.63;97722.06;5014636;28;20203;-69
2021/08/16 05:55:08;;;;;;;7.90;4.50;;;;;;;28.37;61.92;97720.75;5022203;28;20205;-70
2021/08/16 05:57:36;;;;;;;8.87;5.10;;;;;;;29.27;57.82;97717.81;5013127;28;20664;-69
2021/08/16 06:00:03;;;;;;;10.00;4.50;;;;;;;28.69;58.68;97728.53;5021827;28;20651;-70
2021/08/16 06:02:34;;;;;;;7.13;4.13;;;;;;;29.21;56.26;97721.88;5019052;28;20206;-71
2021/08/16 06:05:01;;;;;;;6.63;4.07;;;;;;;28.35;59.32;97733.19;5018918;28;20206;-71
2021/08/16 06:07:28;;;;;;;8.20;4.33;;;;;;;29.06;56.25;97727.91;5017885;28;20203;-70
2021/08/16 06:09:56;;;;;;;6.33;4.50;;;;;;;29.11;55.45;97726.91;5011703;28;20333;-70
2021/08/16 06:12:23;;;;;;;10.30;3.80;;;;;;;28.57;57.80;97722.06;5016531;28;20211;-70
2021/08/16 06:14:51;;;;;;;7.50;4.40;;;;;;;28.88;56.85;97730.97;5021417;28;20743;-70
2021/08/16 06:17:18;;;;;;;8.37;4.27;;;;;;;28.21;60.17;97721.53;5022820;28;20206;-70
2021/08/16 06:19:47;;;;;;;12.47;4.80;;;;;;;28.42;56.86;97730.81;5019379;28;20711;-70
2021/08/16 06:22:14;;;;;;;9.53;4.67;;;;;;;27.25;59.88;97728.13;5021477;28;20199;-70
2021/08/16 06:24:42;;;;;;;9.13;3.87;;;;;;;27.73;59.13;97745.44;5021248;28;20207;-70
2021/08/16 06:27:09;;;;;;;7.03;3.83;;;;;;;28.47;55.03;97747.94;5023474;28;20203;-70
2021/08/16 06:29:36;;;;;;;5.93;3.60;;;;;;;27.84;57.75;97752.28;5020744;28;20696;-70
2021/08/16 06:32:04;;;;;;;8.70;3.90;;;;;;;28.89;53.89;97757.31;5021819;28;20203;-71
2021/08/16 06:34:31;;;;;;;12.00;3.77;;;;;;;28.54;55.15;97770.22;5015562;28;20210;-69
2021/08/16 06:37:00;;;;;;;5.30;3.83;;;;;;;28.59;56.21;97764.56;5024939;28;20225;-69
2021/08/16 06:39:28;;;;;;;6.07;3.70;;;;;;;28.46;56.92;97761.97;5020071;28;20221;-69
2021/08/16 06:41:56;;;;;;;9.03;3.67;;;;;;;29.16;53.90;97765.22;5014433;28;20598;-69
2021/08/16 06:44:26;;;;;;;7.30;3.83;;;;;;;28.86;54.40;97771.69;5026242;28;20257;-68
2021/08/16 06:46:54;;;;;;;6.57;3.50;;;;;;;29.26;52.95;97776.69;5022499;28;20207;-68
2021/08/16 06:49:22;;;;;;;9.97;4.43;;;;;;;28.75;54.08;97775.88;5025327;28;20580;-69
2021/08/16 06:51:49;;;;;;;5.97;3.60;;;;;;;29.06;53.84;97782.03;5021322;28;20214;-68
2021/08/16 06:54:19;;;;;;;8.30;3.50;;;;;;;29.72;51.49;97779.50;5024523;28;20287;-69
2021/08/16 06:56:46;;;;;;;8.53;3.60;;;;;;;28.86;53.58;97788.16;5019812;28;20210;-68
2021/08/16 06:59:13;;;;;;;10.20;3.57;;;;;;;28.90;52.64;97791.88;5023422;28;20222;-68
2021/08/16 07:01:41;;;;;;;7.77;3.50;;;;;;;28.73;52.12;97780.91;5019886;28;20199;-69
2021/08/16 07:04:08;;;;;;;6.20;3.63;;;;;;;29.29;49.86;97794.47;5025381;28;20203;-69
2021/08/16 07:06:35;;;;;;;7.93;3.70;;;;;;;29.84;49.11;97781.56;5018476;28;20218;-69
2021/08/16 07:09:03;;;;;;;6.50;3.63;;;;;;;29.63;48.56;97794.41;5021676;28;20231;-69
2021/08/16 07:11:32;;;;;;;7.43;3.60;;;;;;;29.06;50.21;97798.53;5021803;28;20222;-68
2021/08/16 07:13:59;;;;;;;6.03;3.17;;;;;;;28.69;50.25;97796.41;5022184;28;20302;-69
2021/08/16 07:16:26;;;;;;;4.87;2.97;;;;;;;28.32;49.79;97796.97;5025390;28;20206;-69
2021/08/16 07:18:54;;;;;;;7.00;3.10;;;;;;;28.18;50.05;97804.53;5019436;28;20221;-69
2021/08/16 07:21:21;;;;;;;7.50;3.20;;;;;;;28.31;50.06;97815.38;5026523;28;20207;-69
2021/08/16 07:23:48;;;;;;;4.40;3.03;;;;;;;28.87;48.55;97811.75;5020080;28;20214;-69
2021/08/16 07:26:15;;;;;;;6.90;3.07;;;;;;;28.05;49.26;97814.50;5024163;28;20210;-69
2021/08/16 07:28:46;;;;;;;8.77;3.07;;;;;;;28.97;48.95;97816.97;5016540;28;20697;-69
2021/08/16 07:31:13;;;;;;;6.10;3.40;;;;;;;28.81;48.05;97819.38;5021169;28;20208;-69
2021/08/16 07:33:41;;;;;;;5.37;3.00;;;;;;;29.08;45.45;97829.28;5014631;28;20212;-69
2021/08/16 07:36:08;;;;;;;8.60;3.17;;;;;;;28.98;45.76;97830.38;5021525;28;20220;-69
2021/08/16 07:38:35;;;;;;;8.07;3.00;;;;;;;28.50;47.17;97823.34;5017369;28;20576;-69
2021/08/16 07:41:03;;;;;;;5.60;2.90;;;;;;;29.40;44.27;97820.50;5025097;28;20228;-69
2021/08/16 07:43:30;;;;;;;5.83;2.80;;;;;;;29.33;43.91;97822.91;5022768;28;20207;-69
2021/08/16 07:45:59;;;;;;;6.40;2.87;;;;;;;28.67;44.76;97826.13;5022945;28;20212;-69
2021/08/16 07:48:26;;;;;;;4.50;2.50;;;;;;;28.92;45.30;97831.66;5021761;28;20258;-69
2021/08/16 07:50:53;;;;;;;7.03;2.57;;;;;;;29.29;44.54;97835.72;5022464;28;20569;-69
2021/08/16 07:53:20;;;;;;;5.57;2.77;;;;;;;29.95;42.89;97835.09;5020453;28;20664;-69
2021/08/16 07:55:48;;;;;;;3.63;2.73;;;;;;;30.17;41.69;97832.94;5020733;28;20584;-69
2021/08/16 07:58:15;;;;;;;8.20;3.00;;;;;;;29.69;42.41;97826.91;5019505;28;20212;-70
2021/08/16 08:00:42;;;;;;;6.73;2.50;;;;;;;29.66;42.05;97835.84;5016925;28;20235;-70
2021/08/16 08:03:11;;;;;;;3.37;2.27;;;;;;;29.39;42.12;97838.13;5016736;28;20217;-70
2021/08/16 08:05:38;;;;;;;5.47;2.60;;;;;;;28.39;44.68;97841.28;5018613;28;20212;-69
2021/08/16 08:08:06;;;;;;;5.57;2.73;;;;;;;30.14;41.12;97841.84;5023609;28;20209;-69
2021/08/16 08:10:33;;;;;;;5.13;2.83;;;;;;;30.09;41.10;97832.91;5017698;28;20241;-70
2021/08/16 08:13:01;;;;;;;4.90;2.63;;;;;;;29.75;41.34;97839.34;5021344;28;20643;-69
2021/08/16 08:15:28;;;;;;;3.73;2.70;;;;;;;29.55;41.75;97833.75;5003685;28;20213;-70
2021/08/16 08:17:55;;;;;;;8.43;2.60;;;;;;;29.23;42.52;97828.78;5017405;28;20666;-70
2021/08/16 08:20:24;;;;;;;4.70;2.70;;;;;;;30.54;40.19;97823.78;5021579;28;20695;-71
2021/08/16 08:22:51;;;;;;;4.50;2.67;;;;;;;31.23;39.25;97824.94;5025819;28;20732;-70
2021/08/16 08:25:19;;;;;;;3.92;2.90;;;;;;;31.42;37.68;97835.47;5020974;28;20214;-70
2021/08/16 08:27:46;;;;;;;5.05;2.70;;;;;;;31.43;37.60;97828.81;5024883;28;20679;-70
2021/08/16 08:30:14;;;;;;;6.07;2.75;;;;;;;31.52;36.74;97830.31;5019304;28;20230;-70
2021/08/16 08:32:45;;;;;;;5.10;3.33;;;;;;;31.17;36.46;97839.25;5014124;28;20229;-71
2021/08/16 08:35:13;;;;;;;4.38;2.78;;;;;;;31.29;35.72;97842.91;5017784;28;20657;-70
2021/08/16 08:37:41;;;;;;;5.13;3.08;;;;;;;30.36;37.34;97833.28;5017877;28;20206;-70
2021/08/16 08:40:09;;;;;;;5.00;3.15;;;;;;;29.86;38.88;97845.31;5016962;28;20221;-71
2021/08/16 08:42:38;;;;;;;6.18;3.00;;;;;;;29.34;39.67;97835.53;5021252;28;20203;-69
2021/08/16 08:45:06;;;;;;;6.90;3.40;;;;;;;30.65;37.40;97843.50;5017601;28;20206;-70
2021/08/16 08:47:34;;;;;;;5.63;3.20;;;;;;;30.96;37.10;97842.00;5016193;28;20196;-70
2021/08/16 08:50:02;;;;;;;4.22;2.88;;;;;;;29.66;39.48;97843.28;5023323;28;20230;-69
2021/08/16 08:52:29;;;;;;;7.47;3.08;;;;;;;30.20;39.04;97840.50;5029938;28;20210;-71
2021/08/16 08:54:58;;;;;;;6.13;2.90;;;;;;;29.36;40.92;97839.59;5023897;28;20213;-70
2021/08/16 08:57:27;;;;;;;4.90;3.08;;;;;;;30.47;39.84;97833.72;5018125;28;20226;-70
2021/08/16 08:59:56;;;;;;;6.33;2.93;;;;;;;29.04;42.53;97833.78;5023546;28;20222;-71
2021/08/16 09:02:23;;;;;;;5.80;3.25;;;;;;;29.68;39.91;97838.25;5019130;28;20203;-72
2021/08/16 09:04:51;;;;;;;6.03;3.35;;;;;;;29.92;40.66;97830.22;5022237;28;20210;-70
2021/08/16 09:07:19;;;;;;;4.97;2.80;;;;;;;30.04;39.30;97833.91;5018620;28;20206;-70
2021/08/16 09:09:55;;;;;;;5.93;3.20;;;;;;;29.82;40.30;97841.59;5020056;28;20231;-71
2021/08/16 09:12:31;;;;;;;8.50;3.20;;;;;;;30.49;39.42;97842.44;5019145;28;20694;-73
2021/08/16 09:14:58;;;;;;;8.20;3.85;;;;;;;30.52;39.39;97839.88;5020568;28;20705;-70
2021/08/16 09:17:30;;;;;;;6.45;3.47;;;;;;;29.91;39.66;97834.94;5020111;28;20208;-70
2021/08/16 09:19:57;;;;;;;7.43;3.72;;;;;;;31.14;37.29;97840.72;5024204;28;20214;-71
2021/08/16 09:22:34;;;;;;;5.68;3.25;;;;;;;29.57;39.69;97839.72;5024529;28;20198;-70
2021/08/16 09:25:04;;;;;;;6.30;4.05;;;;;;;29.14;39.78;97836.22;5021383;28;20267;-71
2021/08/16 09:27:34;;;;;;;8.85;3.30;;;;;;;30.38;39.16;97833.78;5023911;28;20667;-70
2021/08/16 09:30:01;;;;;;;6.72;3.47;;;;;;;30.31;38.72;97833.47;5016015;28;20246;-70
2021/08/16 09:32:33;;;;;;;7.55;3.20;;;;;;;30.83;37.35;97837.56;5013483;28;20203;-71
2021/08/16 09:35:09;;;;;;;11.20;4.28;;;;;;;29.77;38.93;97830.78;5015038;28;20202;-70
2021/08/16 09:37:38;;;;;;;8.10;3.63;;;;;;;29.91;38.87;97826.69;5014908;28;20848;-69
2021/08/16 09:40:07;;;;;;;8.73;3.22;;;;;;;30.19;38.12;97832.56;5028147;28;20232;-71
2021/08/16 09:42:47;;;;;;;5.40;3.25;;;;;;;29.70;38.48;97825.78;5013038;28;20261;-70
2021/08/16 09:45:27;;;;;;;7.32;3.38;;;;;;;29.54;38.96;97835.69;5025246;28;20209;-70
2021/08/16 09:47:58;;;;;;;5.17;3.17;;;;;;;29.90;38.08;97830.56;5017183;28;20200;-70
2021/08/16 09:50:36;;;;;;;7.90;3.60;;;;;;;29.88;39.42;97827.34;5021414;28;20236;-71
2021/08/16 09:53:09;;;;;;;5.87;3.30;;;;;;;29.76;38.58;97818.16;5009843;28;20275;-71
2021/08/16 09:55:40;;;;;;;7.20;3.50;;;;;;;30.64;37.44;97828.09;5019153;28;20824;-69
2021/08/16 09:58:12;;;;;;;5.97;3.40;;;;;;;31.32;35.89;97817.38;5017459;28;20210;-70
2021/08/16 10:00:40;;;;;;;6.25;3.17;;;;;;;30.87;36.08;97819.19;5015474;28;20393;-70
2021/08/16 10:03:08;;;;;;;6.30;2.97;;;;;;;30.03;38.29;97823.22;5008106;28;20210;-72
2021/08/16 10:05:38;;;;;;;7.07;3.37;;;;;;;30.97;36.66;97824.31;5019063;28;20210;-71
2021/08/16 10:08:08;;;;;;;6.97;3.00;;;;;;;29.78;38.54;97833.19;5019332;28;20620;-70
2021/08/16 10:10:37;;;;;;;6.00;3.07;;;;;;;29.41;37.92;97825.66;5018037;28;20575;-69
2021/08/16 10:13:05;;;;;;;5.00;3.00;;;;;;;29.44;38.27;97824.22;5016720;28;20213;-69
2021/08/16 10:15:38;;;;;;;6.07;3.00;;;;;;;30.68;36.26;97816.13;5024023;28;20297;-70
2021/08/16 10:18:09;;;;;;;5.10;2.92;;;;;;;29.93;38.35;97815.34;5026607;28;20221;-70
2021/08/16 10:20:37;;;;;;;6.07;3.43;;;;;;;29.51;37.73;97835.50;5023978;28;20220;-71
2021/08/16 10:23:15;;;;;;;8.83;3.03;;;;;;;29.56;38.27;97825.19;5026788;28;20213;-70
2021/08/16 10:25:45;;;;;;;10.27;3.67;;;;;;;29.33;38.17;97833.91;5023633;28;20594;-70
2021/08/16 10:28:24;;;;;;;7.90;3.10;;;;;;;30.39;36.74;97831.81;5025122;28;20210;-70
2021/08/16 10:30:53;;;;;;;4.50;2.80;;;;;;;29.46;37.82;97835.69;5022764;28;20237;-71
2021/08/16 10:33:20;;;;;;;6.70;2.65;;;;;;;28.77;39.30;97834.06;5015787;28;20210;-70
2021/08/16 10:35:48;;;;;;;8.63;3.10;;;;;;;29.57;36.13;97840.53;5027613;28;20671;-70
2021/08/16 10:38:20;;;;;;;7.70;3.30;;;;;;;29.14;37.93;97830.72;5022824;28;20203;-69
2021/08/16 10:40:51;;;;;;;6.20;3.07;;;;;;;29.35;37.34;97826.94;5026702;28;20199;-70
2021/08/16 10:43:19;;;;;;;7.77;2.73;;;;;;;29.87;36.06;97828.47;5022652;28;20234;-71
2021/08/16 10:45:48;;;;;;;5.53;2.83;;;;;;;29.63;36.86;97819.16;5023092;28;20209;-69
2021/08/16 10:48:25;;;;;;;10.70;3.40;;;;;;;29.97;36.65;97821.78;5022480;28;20682;-71
2021/08/16 10:51:04;;;;;;;9.05;2.92;;;;;;;29.60;35.77;97828.09;5023420;28;20228;-70
2021/08/16 10:53:31;;;;;;;6.15;2.90;;;;;;;30.12;35.71;97826.78;5021354;28;20207;-70
2021/08/16 10:56:00;;;;;;;7.35;2.67;;;;;;;29.28;36.00;97826.66;5022669;28;20210;-71
2021/08/16 10:58:27;;;;;;;8.80;2.85;;;;;;;28.23;38.14;97818.09;5020371;28;20296;-71
2021/08/16 11:00:55;;;;;;;6.07;3.15;;;;;;;29.89;35.94;97817.16;5021656;28;20576;-70
2021/08/16 11:03:27;;;;;;;5.90;3.13;;;;;;;29.28;37.02;97823.06;5018381;28;20678;-70
2021/08/16 11:05:54;;;;;;;6.25;2.67;;;;;;;29.82;36.30;97825.91;5016654;28;20218;-69
2021/08/16 11:08:32;;;;;;;8.48;2.75;;;;;;;29.69;36.76;97809.63;5019980;28;20651;-70
2021/08/16 11:11:06;;;;;;;6.53;3.03;;;;;;;31.94;33.33;97812.53;5020643;28;20349;-70
2021/08/16 11:13:34;;;;;;;10.50;4.03;;;;;;;31.48;32.82;97820.31;5022649;28;20202;-70
2021/08/16 11:16:07;;;;;;;6.72;2.90;;;;;;;31.21;33.45;97816.19;5024368;28;20662;-71
2021/08/16 11:18:36;;;;;;;7.47;2.45;;;;;;;30.38;34.58;97805.41;5022970;28;20215;-70
2021/08/16 11:21:06;;;;;;;5.13;2.50;;;;;;;30.16;35.33;97802.97;5026549;28;20203;-69
2021/08/16 11:23:36;;;;;;;5.57;2.53;;;;;;;30.52;34.56;97792.22;5021693;28;20213;-70
2021/08/16 11:26:03;;;;;;;6.97;3.30;;;;;;;31.07;34.24;97795.53;5025304;28;20199;-71
2021/08/16 11:28:32;;;;;;;6.43;2.88;;;;;;;31.49;32.69;97810.88;5017578;28;20205;-70
2021/08/16 11:31:05;;;;;;;5.30;2.60;;;;;;;30.67;34.10;97805.44;5010253;28;20277;-70
2021/08/16 11:33:32;;;;;;;6.35;2.90;;;;;;;29.74;35.69;97804.72;5015096;28;20214;-70